SAS58E EKCH-ESSA
Flight info
| Callsign | SAS58E |
|---|---|
| Flight time | 0h 58m |
| Altitude | 33000 |
| Route | KEMAX DCT RASMU DCT DETSO N873 ARS T317 ELTOK |
| Aircraft | A320/M-SDE3FGHIRWY/LB1 |
Departure
| Time | 2026-05-04 07:33 |
|---|---|
| Airport | Copenhagen Kastrup Airport (EKCH) |
Arrival
| Time | 2026-05-04 08:31 |
|---|---|
| Airport | Stockholm-Arlanda Airport (ESSA) |
| Time | Latitude | Longitude | Altitude | Speed | Heading |
|---|---|---|---|---|---|
| 2026-05-04 07:02 | 55.62584 | 12.64562 | 26 ft | 0 kts | 344° |
| 2026-05-04 07:23 | 55.62569 | 12.64570 | 25 ft | 2 kts | 344° |
| 2026-05-04 07:24 | 55.62554 | 12.64580 | 24 ft | 2 kts | 325° |
| 2026-05-04 07:24 | 55.62539 | 12.64596 | 25 ft | 2 kts | 301° |
| 2026-05-04 07:24 | 55.62532 | 12.64623 | 28 ft | 2 kts | 272° |
| 2026-05-04 07:24 | 55.62537 | 12.64650 | 27 ft | 2 kts | 201° |
| 2026-05-04 07:25 | 55.62544 | 12.64655 | 25 ft | 0 kts | 182° |
| 2026-05-04 07:27 | 55.62542 | 12.64654 | 26 ft | 1 kts | 182° |
| 2026-05-04 07:27 | 55.62528 | 12.64653 | 27 ft | 3 kts | 182° |
| 2026-05-04 07:28 | 55.62500 | 12.64657 | 26 ft | 5 kts | 173° |
| 2026-05-04 07:28 | 55.62457 | 12.64669 | 26 ft | 7 kts | 171° |
| 2026-05-04 07:28 | 55.62397 | 12.64677 | 24 ft | 10 kts | 179° |
| 2026-05-04 07:28 | 55.62322 | 12.64648 | 24 ft | 13 kts | 215° |
| 2026-05-04 07:29 | 55.62275 | 12.64501 | 23 ft | 16 kts | 245° |
| 2026-05-04 07:29 | 55.62200 | 12.64347 | 22 ft | 19 kts | 203° |
| 2026-05-04 07:29 | 55.62081 | 12.64245 | 24 ft | 20 kts | 206° |
| 2026-05-04 07:29 | 55.61948 | 12.64134 | 25 ft | 22 kts | 206° |
| 2026-05-04 07:30 | 55.61834 | 12.64074 | 24 ft | 14 kts | 183° |
| 2026-05-04 07:30 | 55.61761 | 12.64081 | 24 ft | 8 kts | 176° |
| 2026-05-04 07:30 | 55.61700 | 12.64088 | 25 ft | 9 kts | 176° |
| 2026-05-04 07:30 | 55.61641 | 12.64091 | 27 ft | 8 kts | 202° |
| 2026-05-04 07:31 | 55.61620 | 12.64061 | 27 ft | 3 kts | 220° |
| 2026-05-04 07:31 | 55.61558 | 12.63965 | 30 ft | 36 kts | 221° |
| 2026-05-04 07:33 | 55.56025 | 12.55703 | 2024 ft | 218 kts | 212° |
| 2026-05-04 07:33 | 55.54544 | 12.54583 | 2400 ft | 245 kts | 204° |
| 2026-05-04 07:33 | 55.52873 | 12.53594 | 3045 ft | 259 kts | 202° |
| 2026-05-04 07:33 | 55.51140 | 12.52639 | 3889 ft | 263 kts | 202° |
| 2026-05-04 07:34 | 55.49381 | 12.51689 | 4808 ft | 267 kts | 198° |
| 2026-05-04 07:34 | 55.47495 | 12.51582 | 5676 ft | 279 kts | 172° |
| 2026-05-04 07:34 | 55.45700 | 12.53005 | 6479 ft | 291 kts | 143° |
| 2026-05-04 07:34 | 55.44441 | 12.55838 | 7247 ft | 301 kts | 114° |
| 2026-05-04 07:35 | 55.44097 | 12.59475 | 7986 ft | 307 kts | 82° |
| 2026-05-04 07:35 | 55.44805 | 12.62996 | 8702 ft | 307 kts | 51° |
| 2026-05-04 07:35 | 55.46344 | 12.65529 | 9425 ft | 304 kts | 29° |
| 2026-05-04 07:35 | 55.48114 | 12.67627 | 10109 ft | 310 kts | 28° |
| 2026-05-04 07:36 | 55.49978 | 12.69799 | 10339 ft | 333 kts | 28° |
| 2026-05-04 07:36 | 55.51978 | 12.72121 | 10498 ft | 356 kts | 29° |
| 2026-05-04 07:38 | 55.67660 | 12.90781 | 14251 ft | 405 kts | 30° |
| 2026-05-04 07:38 | 55.69978 | 12.93561 | 14772 ft | 410 kts | 30° |
| 2026-05-04 07:38 | 55.72379 | 12.96444 | 15298 ft | 414 kts | 30° |
| 2026-05-04 07:38 | 55.74745 | 12.99282 | 15746 ft | 418 kts | 30° |
| 2026-05-04 07:39 | 55.77162 | 13.02189 | 16341 ft | 422 kts | 30° |
| 2026-05-04 07:39 | 55.79610 | 13.05141 | 16839 ft | 427 kts | 30° |
| 2026-05-04 07:39 | 55.82084 | 13.08126 | 17367 ft | 432 kts | 30° |
| 2026-05-04 07:39 | 55.84584 | 13.11146 | 17902 ft | 436 kts | 30° |
| 2026-05-04 07:40 | 55.87111 | 13.14205 | 18426 ft | 441 kts | 30° |
| 2026-05-04 07:40 | 55.89655 | 13.17287 | 18967 ft | 444 kts | 30° |
| 2026-05-04 07:40 | 55.92220 | 13.20400 | 19480 ft | 448 kts | 31° |
| 2026-05-04 07:40 | 55.94805 | 13.23536 | 19972 ft | 451 kts | 31° |
| 2026-05-04 07:41 | 55.97419 | 13.26709 | 20465 ft | 455 kts | 31° |
| 2026-05-04 07:41 | 56.00041 | 13.29904 | 20922 ft | 458 kts | 31° |
| 2026-05-04 07:41 | 56.02677 | 13.33128 | 21363 ft | 461 kts | 31° |
| 2026-05-04 07:41 | 56.05305 | 13.36352 | 21792 ft | 464 kts | 31° |
| 2026-05-04 07:42 | 56.07972 | 13.39633 | 22214 ft | 467 kts | 31° |
| 2026-05-04 07:42 | 56.10680 | 13.42916 | 22612 ft | 469 kts | 28° |
| 2026-05-04 07:42 | 56.13552 | 13.45654 | 23055 ft | 468 kts | 19° |
| 2026-05-04 07:42 | 56.16599 | 13.47643 | 23424 ft | 466 kts | 12° |
| 2026-05-04 07:43 | 56.19708 | 13.49369 | 23754 ft | 469 kts | 12° |
| 2026-05-04 07:43 | 56.22829 | 13.51107 | 24094 ft | 471 kts | 12° |
| 2026-05-04 07:43 | 56.24907 | 13.52271 | 24308 ft | 472 kts | 13° |
| 2026-05-04 07:43 | 56.28051 | 13.54048 | 24635 ft | 474 kts | 13° |
| 2026-05-04 07:44 | 56.31209 | 13.55848 | 24965 ft | 476 kts | 13° |
| 2026-05-04 07:44 | 56.34372 | 13.57657 | 25282 ft | 479 kts | 13° |
| 2026-05-04 07:44 | 56.37552 | 13.59480 | 25625 ft | 481 kts | 13° |
| 2026-05-04 07:44 | 56.40744 | 13.61306 | 25948 ft | 483 kts | 13° |
| 2026-05-04 07:45 | 56.43955 | 13.63137 | 26255 ft | 485 kts | 13° |
| 2026-05-04 07:45 | 56.47181 | 13.64980 | 26571 ft | 487 kts | 13° |
| 2026-05-04 07:45 | 56.50418 | 13.66835 | 26932 ft | 488 kts | 13° |
| 2026-05-04 07:45 | 56.53648 | 13.68690 | 27381 ft | 486 kts | 13° |
| 2026-05-04 07:46 | 56.56832 | 13.70518 | 27824 ft | 485 kts | 13° |
| 2026-05-04 07:46 | 56.60090 | 13.72392 | 28272 ft | 485 kts | 13° |
| 2026-05-04 07:46 | 56.63262 | 13.74224 | 28750 ft | 484 kts | 13° |
| 2026-05-04 07:46 | 56.66471 | 13.76082 | 29209 ft | 483 kts | 13° |
| 2026-05-04 07:47 | 56.69670 | 13.77940 | 29672 ft | 482 kts | 13° |
| 2026-05-04 07:47 | 56.72865 | 13.79796 | 30082 ft | 482 kts | 13° |
| 2026-05-04 07:47 | 56.76081 | 13.81441 | 30463 ft | 478 kts | 7° |
| 2026-05-04 07:49 | 56.98917 | 13.86896 | 32812 ft | 477 kts | 2° |
| 2026-05-04 07:49 | 57.05589 | 13.88463 | 32808 ft | 486 kts | 2° |
| 2026-05-04 07:50 | 57.12306 | 13.90055 | 32807 ft | 487 kts | 2° |
| 2026-05-04 07:50 | 57.19022 | 13.91650 | 32794 ft | 486 kts | 2° |
| 2026-05-04 07:51 | 57.25733 | 13.93238 | 32802 ft | 486 kts | 2° |
| 2026-05-04 07:51 | 57.32399 | 13.94826 | 32804 ft | 486 kts | 2° |
| 2026-05-04 07:52 | 57.39108 | 13.96436 | 32805 ft | 486 kts | 2° |
| 2026-05-04 07:52 | 57.45826 | 13.98058 | 32829 ft | 487 kts | 2° |
| 2026-05-04 07:54 | 57.72711 | 14.04571 | 32800 ft | 487 kts | 2° |
| 2026-05-04 07:55 | 57.79418 | 14.06216 | 32767 ft | 486 kts | 2° |
| 2026-05-04 07:55 | 57.86133 | 14.07858 | 32776 ft | 487 kts | 2° |
| 2026-05-04 07:56 | 57.92855 | 14.09510 | 32780 ft | 488 kts | 2° |
| 2026-05-04 07:56 | 57.99583 | 14.11180 | 32786 ft | 488 kts | 2° |
| 2026-05-04 07:57 | 58.06321 | 14.12852 | 32786 ft | 488 kts | 2° |
| 2026-05-04 07:57 | 58.13022 | 14.14519 | 32786 ft | 488 kts | 2° |
| 2026-05-04 07:58 | 58.19757 | 14.16216 | 32787 ft | 488 kts | 2° |
| 2026-05-04 07:58 | 58.26490 | 14.17915 | 32813 ft | 489 kts | 2° |
| 2026-05-04 07:59 | 58.33237 | 14.19620 | 32793 ft | 489 kts | 2° |
| 2026-05-04 07:59 | 58.39975 | 14.21329 | 32782 ft | 489 kts | 2° |
| 2026-05-04 08:00 | 58.46724 | 14.23038 | 32774 ft | 489 kts | 2° |
| 2026-05-04 08:02 | 58.69842 | 14.49107 | 32765 ft | 512 kts | 49° |
| 2026-05-04 08:02 | 58.74367 | 14.59676 | 32763 ft | 512 kts | 49° |
| 2026-05-04 08:03 | 58.78892 | 14.70283 | 32762 ft | 512 kts | 50° |
| 2026-05-04 08:03 | 58.83418 | 14.80897 | 32760 ft | 513 kts | 50° |
| 2026-05-04 08:04 | 58.87947 | 14.91562 | 32752 ft | 513 kts | 50° |
| 2026-05-04 08:04 | 58.92456 | 15.02263 | 32754 ft | 513 kts | 50° |
| 2026-05-04 08:05 | 58.96957 | 15.12992 | 32750 ft | 513 kts | 50° |
| 2026-05-04 08:05 | 58.99210 | 15.18369 | 32411 ft | 514 kts | 50° |
| 2026-05-04 08:05 | 59.01462 | 15.23750 | 31819 ft | 513 kts | 50° |
| 2026-05-04 08:06 | 59.03711 | 15.29136 | 31178 ft | 513 kts | 50° |
| 2026-05-04 08:06 | 59.05954 | 15.34527 | 30550 ft | 512 kts | 50° |
| 2026-05-04 08:06 | 59.08185 | 15.39907 | 29936 ft | 512 kts | 50° |
| 2026-05-04 08:06 | 59.10401 | 15.45269 | 29226 ft | 501 kts | 51° |
| 2026-05-04 08:08 | 59.24244 | 15.79016 | 24854 ft | 420 kts | 50° |
| 2026-05-04 08:08 | 59.26045 | 15.83448 | 24375 ft | 414 kts | 50° |
| 2026-05-04 08:10 | 59.39878 | 16.17755 | 20492 ft | 387 kts | 50° |
| 2026-05-04 08:11 | 59.41531 | 16.21889 | 20040 ft | 384 kts | 50° |
| 2026-05-04 08:11 | 59.44809 | 16.30087 | 19179 ft | 379 kts | 50° |
| 2026-05-04 08:11 | 59.46425 | 16.34140 | 18743 ft | 376 kts | 50° |
| 2026-05-04 08:12 | 59.48034 | 16.38192 | 18317 ft | 374 kts | 50° |
| 2026-05-04 08:12 | 59.49625 | 16.42206 | 17871 ft | 371 kts | 50° |
| 2026-05-04 08:12 | 59.51210 | 16.46208 | 17352 ft | 368 kts | 50° |
| 2026-05-04 08:12 | 59.52774 | 16.50161 | 16876 ft | 365 kts | 50° |
| 2026-05-04 08:13 | 59.54325 | 16.54093 | 16397 ft | 360 kts | 50° |
| 2026-05-04 08:13 | 59.55820 | 16.57894 | 15937 ft | 351 kts | 50° |
| 2026-05-04 08:13 | 59.57296 | 16.61653 | 15568 ft | 340 kts | 49° |
| 2026-05-04 08:13 | 59.58840 | 16.65035 | 15261 ft | 325 kts | 39° |
| 2026-05-04 08:14 | 59.60554 | 16.67785 | 14960 ft | 310 kts | 31° |
| 2026-05-04 08:14 | 59.62292 | 16.70226 | 14661 ft | 301 kts | 31° |
| 2026-05-04 08:14 | 59.63969 | 16.72601 | 14373 ft | 292 kts | 31° |
| 2026-05-04 08:16 | 59.75229 | 16.88643 | 12222 ft | 279 kts | 32° |
| 2026-05-04 08:16 | 59.76795 | 16.90891 | 11899 ft | 277 kts | 32° |
| 2026-05-04 08:16 | 59.78345 | 16.93116 | 11587 ft | 274 kts | 32° |
| 2026-05-04 08:17 | 59.79867 | 16.95376 | 11268 ft | 273 kts | 38° |
| 2026-05-04 08:17 | 59.81173 | 16.98151 | 10894 ft | 276 kts | 51° |
| 2026-05-04 08:17 | 59.82152 | 17.01431 | 10520 ft | 277 kts | 65° |
| 2026-05-04 08:17 | 59.82758 | 17.05038 | 10154 ft | 281 kts | 78° |
| 2026-05-04 08:19 | 59.85640 | 17.31126 | 8083 ft | 269 kts | 58° |
| 2026-05-04 08:19 | 59.86586 | 17.34335 | 7874 ft | 266 kts | 58° |
| 2026-05-04 08:20 | 59.87521 | 17.37495 | 7669 ft | 264 kts | 58° |
| 2026-05-04 08:20 | 59.88457 | 17.40640 | 7456 ft | 262 kts | 58° |
| 2026-05-04 08:20 | 59.89385 | 17.43755 | 7268 ft | 261 kts | 58° |
| 2026-05-04 08:20 | 59.90312 | 17.46862 | 7073 ft | 261 kts | 58° |
| 2026-05-04 08:21 | 59.91236 | 17.49960 | 6869 ft | 260 kts | 59° |
| 2026-05-04 08:21 | 59.91814 | 17.53335 | 6656 ft | 258 kts | 88° |
| 2026-05-04 08:21 | 59.91752 | 17.56905 | 6465 ft | 258 kts | 94° |
| 2026-05-04 08:21 | 59.91689 | 17.60486 | 6239 ft | 258 kts | 93° |
| 2026-05-04 08:22 | 59.91640 | 17.64050 | 5984 ft | 257 kts | 93° |
| 2026-05-04 08:22 | 59.91593 | 17.67592 | 5725 ft | 254 kts | 93° |
| 2026-05-04 08:24 | 59.91191 | 17.91812 | 4113 ft | 241 kts | 105° |
| 2026-05-04 08:24 | 59.90521 | 17.94787 | 3913 ft | 233 kts | 128° |
| 2026-05-04 08:24 | 59.89450 | 17.97106 | 3696 ft | 223 kts | 146° |
| 2026-05-04 08:24 | 59.88160 | 17.98611 | 3493 ft | 214 kts | 163° |
| 2026-05-04 08:25 | 59.86754 | 17.99305 | 3288 ft | 205 kts | 179° |
| 2026-05-04 08:25 | 59.85364 | 17.99202 | 3085 ft | 196 kts | 194° |
| 2026-05-04 08:25 | 59.84046 | 17.98721 | 2918 ft | 188 kts | 194° |
| 2026-05-04 08:25 | 59.82776 | 17.98257 | 2693 ft | 183 kts | 194° |
| 2026-05-04 08:26 | 59.81532 | 17.97801 | 2558 ft | 179 kts | 194° |
| 2026-05-04 08:27 | 59.74197 | 17.95125 | 1704 ft | 136 kts | 194° |
| 2026-05-04 08:28 | 59.73265 | 17.94785 | 1515 ft | 136 kts | 193° |
| 2026-05-04 08:28 | 59.72341 | 17.94449 | 1332 ft | 135 kts | 193° |
| 2026-05-04 08:28 | 59.71416 | 17.94112 | 1135 ft | 134 kts | 194° |
| 2026-05-04 08:28 | 59.70496 | 17.93778 | 946 ft | 134 kts | 193° |
| 2026-05-04 08:29 | 59.69581 | 17.93445 | 758 ft | 133 kts | 192° |
| 2026-05-04 08:29 | 59.68670 | 17.93109 | 546 ft | 133 kts | 191° |
| 2026-05-04 08:29 | 59.67760 | 17.92779 | 367 ft | 133 kts | 189° |
| 2026-05-04 08:31 | 59.65123 | 17.92191 | 138 ft | 16 kts | 8° |
| 2026-05-04 08:33 | 59.65384 | 17.92938 | 137 ft | 5 kts | 142° |
| 2026-05-04 08:33 | 59.65372 | 17.92956 | 137 ft | 0 kts | 139° |